EGGDLEAL

Guest
Details From EGGD - Bristol Lulsgate
To LEAL - Alicante
Flight Number -
Tags Generated
Created
Modified
Stats Distance 792 nm / 1,467 km
Max Altitude 0 ft / 0 m
Waypoints 5
Social Downloads 13
Likes 0
Share VATSIM

Download

Looking for another format? Having issues loading an existing format? Contact us
Advertisement - Login to hide

Notes

Generated

Route

EGGD OLEBA PIPOR R2305 LEAL

ID Type Via Altitude Latitude Longitude Leg Dist Tot Dist Heading (true) Name
O EGGD APT - 0 ft / 0 m 51.38211˚ -2.73350˚ - 0 nm - -
OLEBA FIX - 0 ft / 0 m 47.15694˚ -1.84806˚ 256 nm 256 nm 172° / 173° -
PIPOR FIX - 0 ft / 0 m 43.00917˚ -1.10806˚ 251 nm 507 nm 173° / 173° -
R2305 FIX - 0 ft / 0 m 38.28452˚ -0.57500˚ 284 nm 791 nm 175° / 175° -
O LEAL APT - 0 ft / 0 m 38.28452˚ -0.57500˚ 0 nm 791 nm 270° / 270° -

Altitude Profile

Advertisement - Login to hide

Weather


0- 5 10 15 20 25 30 35+ Temperature / ° C

Clouds and Precipitation
Forecast for 2017-12-15 12:00 UTC. Updated an hour ago

Ground ~20,000 ft ~40,000 ft Winds

EGGD

Details ICAO EGGD (BRS)
Name Bristol International
Region United Kingdom
Timezone Europe/London (UTC+0.0)
Stats Elevation 622 ft / 190 m (AMSL)
Location 51.382658° -2.718918°
Runways 1
Magnetic Variation 1.350° W

METAR

EGGD 151220Z AUTO 30010KT 9999 BKN028 05/01 Q1002

Decode

TAF

TAF EGGD 151101Z 1512/1612 32009KT 9999 SCT020= TAF EGPD 151055Z 1512/1612 32012KT 9999 SCT030 TEMPO 1512/1520 34015G25KT 6000 SHRA -SHRASN BKN008 TEMPO 1520/1606 4000 SHRASN -SHSN BKN005 PROB30 TEMPO 1606/1612 6000 SHRA -SHRASN BKN008

Decode

Departure Runways

ID Width Length Bearing (true) Bearing (mag) Surface Threshold Offset Overrun Length
09 148 ft / 45 m 6,655 ft / 2,029 m 86.42° 87.77° Asphalt 0 ft / 0 m 0 ft / 0 m
27 148 ft / 45 m 6,655 ft / 2,029 m 266.44° 267.79° Asphalt 499 ft / 152 m 0 ft / 0 m

LEAL

Details ICAO LEAL (ALC)
Name Alicante
Region Spain
Timezone Europe/Madrid (UTC+1.0)
Stats Elevation 141 ft / 43 m (AMSL)
Location 38.282169° -0.558157°
Runways 1
Magnetic Variation 0.184° E

METAR

LEAL 151230Z 29013KT 260V330 9999 FEW025 20/07 Q1009 NOSIG

Decode

TAF

TAF TAF LEAL 151100Z 1512/1612 29012KT 9999 FEW030 TX20/1513Z TN06/1606Z TEMPO 1512/1515 24011KT TEMPO 1512/1515 30012G25KT PROB40 TEMPO 1518/1521 RA BKN020 BECMG 1518/1520 30006KT

Decode

Destination Runways

ID Width Length Bearing (true) Bearing (mag) Surface Threshold Offset Overrun Length
10 148 ft / 45 m 9,799 ft / 2,987 m 100.07° 99.89° Asphalt 0 ft / 0 m 164 ft / 50 m
28 148 ft / 45 m 9,799 ft / 2,987 m 280.09° 279.91° Asphalt 0 ft / 0 m 197 ft / 60 m

Approach Navaids

Runway Type Ident Frequency Range Bearing (true) Bearing (mag) Slope Elevation
10 Localiser IAT 110.30 MHz 18 nm / 33 km 100.09° 99.91° - 29 ft / 9 m (AMSL)
10 Glidescope IAT 110.30 MHz 10 nm / 19 km 100.09° 99.91° 3.00° 129 ft / 39 m (AMSL)
10 DME IAT 110.30 MHz 18 nm / 33 km - - - 129 ft / 39 m (AMSL)

Popular Alternatives